sensor_id;sensor_type;location;lat;lon;timestamp;P1;durP1;ratioP1;P2;durP2;ratioP2
71462;SDS011;59266;52.608;13.260;2022-11-27T00:01:50;38.35;;;11.00;;
71462;SDS011;59266;52.608;13.260;2022-11-27T00:04:17;29.70;;;11.23;;
71462;SDS011;59266;52.608;13.260;2022-11-27T00:06:44;35.80;;;11.05;;
71462;SDS011;59266;52.608;13.260;2022-11-27T00:09:11;46.20;;;11.07;;
71462;SDS011;59266;52.608;13.260;2022-11-27T00:11:40;33.50;;;10.40;;
71462;SDS011;59266;52.608;13.260;2022-11-27T00:14:11;36.47;;;11.35;;
71462;SDS011;59266;52.608;13.260;2022-11-27T00:16:39;35.83;;;11.75;;
71462;SDS011;59266;52.608;13.260;2022-11-27T00:19:06;30.15;;;10.57;;
71462;SDS011;59266;52.608;13.260;2022-11-27T00:21:35;32.03;;;10.48;;
71462;SDS011;59266;52.608;13.260;2022-11-27T00:24:03;42.40;;;11.45;;
71462;SDS011;59266;52.608;13.260;2022-11-27T00:26:31;28.55;;;9.63;;
71462;SDS011;59266;52.608;13.260;2022-11-27T00:29:03;34.33;;;10.25;;
71462;SDS011;59266;52.608;13.260;2022-11-27T00:31:31;42.60;;;10.60;;
71462;SDS011;59266;52.608;13.260;2022-11-27T00:34:00;42.42;;;10.57;;
71462;SDS011;59266;52.608;13.260;2022-11-27T00:36:28;33.60;;;10.63;;
71462;SDS011;59266;52.608;13.260;2022-11-27T00:38:56;49.97;;;11.00;;
71462;SDS011;59266;52.608;13.260;2022-11-27T00:41:24;39.83;;;10.93;;
71462;SDS011;59266;52.608;13.260;2022-11-27T00:43:53;49.00;;;12.10;;
71462;SDS011;59266;52.608;13.260;2022-11-27T00:46:21;38.72;;;11.32;;
71462;SDS011;59266;52.608;13.260;2022-11-27T00:48:54;50.80;;;12.50;;
71462;SDS011;59266;52.608;13.260;2022-11-27T00:51:25;62.17;;;13.07;;
71462;SDS011;59266;52.608;13.260;2022-11-27T00:53:52;47.03;;;12.93;;
71462;SDS011;59266;52.608;13.260;2022-11-27T00:56:20;51.42;;;13.68;;
71462;SDS011;59266;52.608;13.260;2022-11-27T00:58:49;34.42;;;12.00;;
71462;SDS011;59266;52.608;13.260;2022-11-27T01:01:20;64.05;;;13.40;;
71462;SDS011;59266;52.608;13.260;2022-11-27T01:03:49;73.40;;;13.90;;
71462;SDS011;59266;52.608;13.260;2022-11-27T01:06:17;52.00;;;13.38;;
71462;SDS011;59266;52.608;13.260;2022-11-27T01:08:44;47.70;;;13.18;;
71462;SDS011;59266;52.608;13.260;2022-11-27T01:11:16;45.85;;;14.48;;
71462;SDS011;59266;52.608;13.260;2022-11-27T01:13:48;47.15;;;13.10;;
71462;SDS011;59266;52.608;13.260;2022-11-27T01:16:15;43.25;;;12.82;;
71462;SDS011;59266;52.608;13.260;2022-11-27T01:18:45;46.78;;;11.82;;
71462;SDS011;59266;52.608;13.260;2022-11-27T01:21:14;45.30;;;12.05;;
71462;SDS011;59266;52.608;13.260;2022-11-27T01:23:42;49.05;;;12.05;;
71462;SDS011;59266;52.608;13.260;2022-11-27T01:26:09;38.72;;;12.25;;
71462;SDS011;59266;52.608;13.260;2022-11-27T01:28:36;40.22;;;12.13;;
71462;SDS011;59266;52.608;13.260;2022-11-27T01:31:05;42.35;;;12.30;;
71462;SDS011;59266;52.608;13.260;2022-11-27T01:33:34;42.38;;;12.93;;
71462;SDS011;59266;52.608;13.260;2022-11-27T01:36:01;43.03;;;12.88;;
71462;SDS011;59266;52.608;13.260;2022-11-27T01:38:29;52.95;;;13.00;;
71462;SDS011;59266;52.608;13.260;2022-11-27T01:40:57;43.95;;;11.52;;
71462;SDS011;59266;52.608;13.260;2022-11-27T01:43:37;50.20;;;13.25;;
71462;SDS011;59266;52.608;13.260;2022-11-27T01:46:22;48.22;;;11.43;;
71462;SDS011;59266;52.608;13.260;2022-11-27T01:51:55;53.17;;;12.55;;
71462;SDS011;59266;52.608;13.260;2022-11-27T01:54:28;46.67;;;12.45;;
71462;SDS011;59266;52.608;13.260;2022-11-27T01:57:02;67.68;;;13.75;;
71462;SDS011;59266;52.608;13.260;2022-11-27T01:59:31;67.90;;;12.95;;
71462;SDS011;59266;52.608;13.260;2022-11-27T02:01:59;55.03;;;11.65;;
71462;SDS011;59266;52.608;13.260;2022-11-27T02:04:28;42.35;;;12.90;;
71462;SDS011;59266;52.608;13.260;2022-11-27T02:06:55;50.83;;;12.38;;
71462;SDS011;59266;52.608;13.260;2022-11-27T02:09:24;45.30;;;13.15;;
71462;SDS011;59266;52.608;13.260;2022-11-27T02:11:59;46.50;;;11.60;;
71462;SDS011;59266;52.608;13.260;2022-11-27T02:14:37;39.20;;;11.10;;
71462;SDS011;59266;52.608;13.260;2022-11-27T02:17:12;71.13;;;12.40;;
71462;SDS011;59266;52.608;13.260;2022-11-27T02:28:52;51.92;;;11.02;;
71462;SDS011;59266;52.608;13.260;2022-11-27T02:31:31;35.65;;;10.57;;
71462;SDS011;59266;52.608;13.260;2022-11-27T02:34:08;62.85;;;12.35;;
71462;SDS011;59266;52.608;13.260;2022-11-27T02:36:43;42.25;;;12.38;;
71462;SDS011;59266;52.608;13.260;2022-11-27T02:39:17;43.92;;;11.65;;
71462;SDS011;59266;52.608;13.260;2022-11-27T02:41:49;46.65;;;12.55;;
71462;SDS011;59266;52.608;13.260;2022-11-27T02:44:22;37.60;;;11.85;;
71462;SDS011;59266;52.608;13.260;2022-11-27T02:46:52;47.22;;;12.82;;
71462;SDS011;59266;52.608;13.260;2022-11-27T02:49:19;46.22;;;11.93;;
71462;SDS011;59266;52.608;13.260;2022-11-27T02:51:52;42.13;;;12.50;;
71462;SDS011;59266;52.608;13.260;2022-11-27T02:54:23;35.83;;;10.70;;
71462;SDS011;59266;52.608;13.260;2022-11-27T02:56:53;38.10;;;12.00;;
71462;SDS011;59266;52.608;13.260;2022-11-27T02:59:22;32.25;;;11.02;;
71462;SDS011;59266;52.608;13.260;2022-11-27T03:01:54;35.90;;;11.68;;
71462;SDS011;59266;52.608;13.260;2022-11-27T03:04:29;39.60;;;11.10;;
71462;SDS011;59266;52.608;13.260;2022-11-27T03:07:00;37.40;;;11.52;;
71462;SDS011;59266;52.608;13.260;2022-11-27T03:09:36;33.65;;;11.05;;
71462;SDS011;59266;52.608;13.260;2022-11-27T03:12:05;33.53;;;11.23;;
71462;SDS011;59266;52.608;13.260;2022-11-27T03:14:34;30.25;;;10.95;;
71462;SDS011;59266;52.608;13.260;2022-11-27T03:17:05;40.28;;;11.85;;
71462;SDS011;59266;52.608;13.260;2022-11-27T03:19:50;34.22;;;9.85;;
71462;SDS011;59266;52.608;13.260;2022-11-27T03:22:20;31.85;;;11.52;;
71462;SDS011;59266;52.608;13.260;2022-11-27T03:24:46;39.67;;;11.73;;
71462;SDS011;59266;52.608;13.260;2022-11-27T03:27:17;37.13;;;11.20;;
71462;SDS011;59266;52.608;13.260;2022-11-27T03:29:50;31.80;;;11.75;;
71462;SDS011;59266;52.608;13.260;2022-11-27T03:32:21;35.60;;;11.80;;
71462;SDS011;59266;52.608;13.260;2022-11-27T03:34:48;39.00;;;11.27;;
71462;SDS011;59266;52.608;13.260;2022-11-27T03:37:15;34.15;;;11.15;;
71462;SDS011;59266;52.608;13.260;2022-11-27T03:39:41;42.58;;;12.13;;
71462;SDS011;59266;52.608;13.260;2022-11-27T03:42:20;27.15;;;10.90;;
71462;SDS011;59266;52.608;13.260;2022-11-27T03:44:55;36.55;;;10.65;;
71462;SDS011;59266;52.608;13.260;2022-11-27T03:50:45;33.97;;;10.48;;
71462;SDS011;59266;52.608;13.260;2022-11-27T03:54:02;39.85;;;10.32;;
71462;SDS011;59266;52.608;13.260;2022-11-27T03:56:13;36.30;;;11.70;;
71462;SDS011;59266;52.608;13.260;2022-11-27T03:59:03;34.53;;;11.35;;
71462;SDS011;59266;52.608;13.260;2022-11-27T04:01:35;37.17;;;11.57;;
71462;SDS011;59266;52.608;13.260;2022-11-27T04:04:02;43.03;;;12.77;;
71462;SDS011;59266;52.608;13.260;2022-11-27T04:06:28;30.35;;;10.70;;
71462;SDS011;59266;52.608;13.260;2022-11-27T04:08:55;30.08;;;10.65;;
71462;SDS011;59266;52.608;13.260;2022-11-27T04:11:21;29.85;;;10.57;;
71462;SDS011;59266;52.608;13.260;2022-11-27T04:13:48;45.05;;;11.50;;
71462;SDS011;59266;52.608;13.260;2022-11-27T04:16:14;40.53;;;10.68;;
71462;SDS011;59266;52.608;13.260;2022-11-27T04:18:41;38.10;;;11.75;;
71462;SDS011;59266;52.608;13.260;2022-11-27T04:21:07;35.60;;;10.93;;
71462;SDS011;59266;52.608;13.260;2022-11-27T04:23:34;36.38;;;10.93;;
71462;SDS011;59266;52.608;13.260;2022-11-27T04:26:03;34.42;;;11.88;;
71462;SDS011;59266;52.608;13.260;2022-11-27T04:28:30;33.28;;;11.23;;
71462;SDS011;59266;52.608;13.260;2022-11-27T04:30:59;37.83;;;11.40;;
71462;SDS011;59266;52.608;13.260;2022-11-27T04:33:26;35.35;;;10.43;;
71462;SDS011;59266;52.608;13.260;2022-11-27T04:35:53;37.85;;;10.73;;
71462;SDS011;59266;52.608;13.260;2022-11-27T04:38:19;42.00;;;12.00;;
71462;SDS011;59266;52.608;13.260;2022-11-27T04:40:47;40.60;;;12.15;;
71462;SDS011;59266;52.608;13.260;2022-11-27T04:43:14;31.52;;;9.77;;
71462;SDS011;59266;52.608;13.260;2022-11-27T04:45:40;30.48;;;9.15;;
71462;SDS011;59266;52.608;13.260;2022-11-27T04:48:06;27.52;;;9.63;;
71462;SDS011;59266;52.608;13.260;2022-11-27T04:50:33;41.88;;;10.85;;
71462;SDS011;59266;52.608;13.260;2022-11-27T04:52:59;39.47;;;10.57;;
71462;SDS011;59266;52.608;13.260;2022-11-27T04:55:26;29.38;;;9.07;;
71462;SDS011;59266;52.608;13.260;2022-11-27T04:57:53;39.80;;;10.40;;
71462;SDS011;59266;52.608;13.260;2022-11-27T05:00:19;30.33;;;9.27;;
71462;SDS011;59266;52.608;13.260;2022-11-27T05:02:46;41.33;;;10.35;;
71462;SDS011;59266;52.608;13.260;2022-11-27T05:05:13;54.78;;;11.18;;
71462;SDS011;59266;52.608;13.260;2022-11-27T05:07:39;72.25;;;9.45;;
71462;SDS011;59266;52.608;13.260;2022-11-27T05:10:06;48.50;;;9.60;;
71462;SDS011;59266;52.608;13.260;2022-11-27T05:12:33;38.05;;;10.88;;
71462;SDS011;59266;52.608;13.260;2022-11-27T05:15:00;28.90;;;8.80;;
71462;SDS011;59266;52.608;13.260;2022-11-27T05:17:29;34.90;;;9.63;;
71462;SDS011;59266;52.608;13.260;2022-11-27T05:19:56;39.50;;;9.93;;
71462;SDS011;59266;52.608;13.260;2022-11-27T05:22:23;32.90;;;8.90;;
71462;SDS011;59266;52.608;13.260;2022-11-27T05:24:49;37.72;;;9.63;;
71462;SDS011;59266;52.608;13.260;2022-11-27T05:27:16;34.70;;;9.43;;
71462;SDS011;59266;52.608;13.260;2022-11-27T05:29:42;38.72;;;11.43;;
71462;SDS011;59266;52.608;13.260;2022-11-27T05:32:09;42.60;;;11.73;;
71462;SDS011;59266;52.608;13.260;2022-11-27T05:34:35;33.70;;;10.65;;
71462;SDS011;59266;52.608;13.260;2022-11-27T05:37:02;43.25;;;10.38;;
71462;SDS011;59266;52.608;13.260;2022-11-27T05:39:28;33.42;;;9.73;;
71462;SDS011;59266;52.608;13.260;2022-11-27T05:41:54;32.90;;;10.38;;
71462;SDS011;59266;52.608;13.260;2022-11-27T05:44:21;60.15;;;9.68;;
71462;SDS011;59266;52.608;13.260;2022-11-27T05:46:47;56.05;;;10.00;;
71462;SDS011;59266;52.608;13.260;2022-11-27T05:49:14;75.45;;;10.80;;
71462;SDS011;59266;52.608;13.260;2022-11-27T05:51:41;41.72;;;10.18;;
71462;SDS011;59266;52.608;13.260;2022-11-27T05:54:16;33.75;;;9.13;;
71462;SDS011;59266;52.608;13.260;2022-11-27T05:56:42;47.60;;;9.73;;
71462;SDS011;59266;52.608;13.260;2022-11-27T05:59:09;42.58;;;10.82;;
71462;SDS011;59266;52.608;13.260;2022-11-27T06:01:36;33.33;;;7.45;;
71462;SDS011;59266;52.608;13.260;2022-11-27T06:04:02;37.63;;;9.70;;
71462;SDS011;59266;52.608;13.260;2022-11-27T06:06:29;32.83;;;10.38;;
71462;SDS011;59266;52.608;13.260;2022-11-27T06:08:56;47.38;;;13.00;;
71462;SDS011;59266;52.608;13.260;2022-11-27T06:11:22;52.60;;;13.32;;
71462;SDS011;59266;52.608;13.260;2022-11-27T06:13:49;53.28;;;13.40;;
71462;SDS011;59266;52.608;13.260;2022-11-27T06:16:17;51.90;;;14.77;;
71462;SDS011;59266;52.608;13.260;2022-11-27T06:18:48;61.33;;;14.48;;
71462;SDS011;59266;52.608;13.260;2022-11-27T06:21:16;40.97;;;12.23;;
71462;SDS011;59266;52.608;13.260;2022-11-27T06:23:43;58.25;;;13.55;;
71462;SDS011;59266;52.608;13.260;2022-11-27T06:26:17;59.10;;;14.00;;
71462;SDS011;59266;52.608;13.260;2022-11-27T06:28:46;37.95;;;11.73;;
71462;SDS011;59266;52.608;13.260;2022-11-27T06:31:16;54.25;;;12.23;;
71462;SDS011;59266;52.608;13.260;2022-11-27T06:33:47;48.72;;;11.85;;
71462;SDS011;59266;52.608;13.260;2022-11-27T06:36:15;54.85;;;13.88;;
71462;SDS011;59266;52.608;13.260;2022-11-27T06:38:43;49.90;;;12.63;;
71462;SDS011;59266;52.608;13.260;2022-11-27T06:41:14;52.60;;;14.35;;
71462;SDS011;59266;52.608;13.260;2022-11-27T06:43:42;62.17;;;13.32;;
71462;SDS011;59266;52.608;13.260;2022-11-27T06:46:10;55.92;;;14.05;;
71462;SDS011;59266;52.608;13.260;2022-11-27T06:48:39;48.78;;;12.80;;
71462;SDS011;59266;52.608;13.260;2022-11-27T06:51:05;52.55;;;12.10;;
71462;SDS011;59266;52.608;13.260;2022-11-27T06:53:35;62.28;;;14.55;;
71462;SDS011;59266;52.608;13.260;2022-11-27T06:56:03;48.90;;;13.32;;
71462;SDS011;59266;52.608;13.260;2022-11-27T06:58:30;47.55;;;14.13;;
71462;SDS011;59266;52.608;13.260;2022-11-27T07:00:57;53.25;;;14.20;;
71462;SDS011;59266;52.608;13.260;2022-11-27T07:03:24;57.70;;;15.77;;
71462;SDS011;59266;52.608;13.260;2022-11-27T07:05:51;63.38;;;14.35;;
71462;SDS011;59266;52.608;13.260;2022-11-27T07:08:17;59.28;;;14.43;;
71462;SDS011;59266;52.608;13.260;2022-11-27T07:10:44;59.33;;;13.85;;
71462;SDS011;59266;52.608;13.260;2022-11-27T07:13:10;50.25;;;13.23;;
71462;SDS011;59266;52.608;13.260;2022-11-27T07:15:37;57.00;;;14.73;;
71462;SDS011;59266;52.608;13.260;2022-11-27T07:18:03;54.70;;;14.77;;
71462;SDS011;59266;52.608;13.260;2022-11-27T07:20:30;66.72;;;13.90;;
71462;SDS011;59266;52.608;13.260;2022-11-27T07:22:57;47.90;;;13.40;;
71462;SDS011;59266;52.608;13.260;2022-11-27T07:25:24;61.03;;;14.20;;
71462;SDS011;59266;52.608;13.260;2022-11-27T07:27:50;64.57;;;13.77;;
71462;SDS011;59266;52.608;13.260;2022-11-27T07:30:17;51.97;;;12.70;;
71462;SDS011;59266;52.608;13.260;2022-11-27T07:32:43;53.17;;;12.98;;
71462;SDS011;59266;52.608;13.260;2022-11-27T07:35:10;46.10;;;13.57;;
71462;SDS011;59266;52.608;13.260;2022-11-27T07:37:36;37.10;;;12.05;;
71462;SDS011;59266;52.608;13.260;2022-11-27T07:40:03;43.47;;;13.00;;
71462;SDS011;59266;52.608;13.260;2022-11-27T07:42:31;55.20;;;13.10;;
71462;SDS011;59266;52.608;13.260;2022-11-27T07:45:08;51.55;;;13.05;;
71462;SDS011;59266;52.608;13.260;2022-11-27T07:47:35;50.20;;;12.38;;
71462;SDS011;59266;52.608;13.260;2022-11-27T07:50:02;42.72;;;11.63;;
71462;SDS011;59266;52.608;13.260;2022-11-27T07:52:29;47.00;;;13.35;;
71462;SDS011;59266;52.608;13.260;2022-11-27T07:54:55;51.97;;;13.05;;
71462;SDS011;59266;52.608;13.260;2022-11-27T07:57:22;36.92;;;12.02;;
71462;SDS011;59266;52.608;13.260;2022-11-27T07:59:48;41.70;;;12.30;;
71462;SDS011;59266;52.608;13.260;2022-11-27T08:02:15;45.78;;;14.18;;
71462;SDS011;59266;52.608;13.260;2022-11-27T08:04:41;42.28;;;13.18;;
71462;SDS011;59266;52.608;13.260;2022-11-27T08:07:08;40.33;;;13.02;;
71462;SDS011;59266;52.608;13.260;2022-11-27T08:09:35;40.97;;;12.50;;
71462;SDS011;59266;52.608;13.260;2022-11-27T08:12:03;44.92;;;14.07;;
71462;SDS011;59266;52.608;13.260;2022-11-27T08:14:30;39.20;;;12.77;;
71462;SDS011;59266;52.608;13.260;2022-11-27T08:16:56;42.78;;;14.25;;
71462;SDS011;59266;52.608;13.260;2022-11-27T08:19:23;39.63;;;12.43;;
71462;SDS011;59266;52.608;13.260;2022-11-27T08:21:49;41.45;;;13.60;;
71462;SDS011;59266;52.608;13.260;2022-11-27T08:24:16;49.15;;;15.98;;
71462;SDS011;59266;52.608;13.260;2022-11-27T08:26:42;38.45;;;14.38;;
71462;SDS011;59266;52.608;13.260;2022-11-27T08:29:10;38.90;;;14.77;;
71462;SDS011;59266;52.608;13.260;2022-11-27T08:31:37;41.50;;;13.73;;
71462;SDS011;59266;52.608;13.260;2022-11-27T08:34:04;38.53;;;13.82;;
71462;SDS011;59266;52.608;13.260;2022-11-27T08:36:31;42.63;;;12.70;;
71462;SDS011;59266;52.608;13.260;2022-11-27T08:38:57;34.40;;;13.00;;
71462;SDS011;59266;52.608;13.260;2022-11-27T08:41:24;33.25;;;13.05;;
71462;SDS011;59266;52.608;13.260;2022-11-27T08:43:50;32.22;;;12.88;;
71462;SDS011;59266;52.608;13.260;2022-11-27T08:46:16;32.10;;;12.48;;
71462;SDS011;59266;52.608;13.260;2022-11-27T08:48:44;38.35;;;12.77;;
71462;SDS011;59266;52.608;13.260;2022-11-27T08:51:11;31.90;;;12.40;;
71462;SDS011;59266;52.608;13.260;2022-11-27T08:53:40;35.25;;;13.52;;
71462;SDS011;59266;52.608;13.260;2022-11-27T08:56:11;31.45;;;11.45;;
71462;SDS011;59266;52.608;13.260;2022-11-27T08:58:43;28.15;;;12.27;;
71462;SDS011;59266;52.608;13.260;2022-11-27T09:01:18;32.20;;;11.95;;
71462;SDS011;59266;52.608;13.260;2022-11-27T09:03:46;30.38;;;12.40;;
71462;SDS011;59266;52.608;13.260;2022-11-27T09:06:15;28.98;;;11.10;;
71462;SDS011;59266;52.608;13.260;2022-11-27T09:08:43;27.73;;;10.45;;
71462;SDS011;59266;52.608;13.260;2022-11-27T09:11:10;27.27;;;10.55;;
71462;SDS011;59266;52.608;13.260;2022-11-27T09:13:38;23.55;;;11.13;;
71462;SDS011;59266;52.608;13.260;2022-11-27T09:16:06;27.33;;;10.82;;
71462;SDS011;59266;52.608;13.260;2022-11-27T09:18:37;27.92;;;10.50;;
71462;SDS011;59266;52.608;13.260;2022-11-27T09:21:05;24.13;;;9.93;;
71462;SDS011;59266;52.608;13.260;2022-11-27T09:23:34;21.90;;;10.05;;
71462;SDS011;59266;52.608;13.260;2022-11-27T09:26:04;27.17;;;9.52;;
71462;SDS011;59266;52.608;13.260;2022-11-27T09:28:32;28.80;;;10.57;;
71462;SDS011;59266;52.608;13.260;2022-11-27T09:30:59;26.00;;;9.57;;
71462;SDS011;59266;52.608;13.260;2022-11-27T09:33:28;20.77;;;10.27;;
71462;SDS011;59266;52.608;13.260;2022-11-27T09:35:55;24.25;;;9.27;;
71462;SDS011;59266;52.608;13.260;2022-11-27T09:38:22;22.27;;;9.25;;
71462;SDS011;59266;52.608;13.260;2022-11-27T09:40:50;20.27;;;9.13;;
71462;SDS011;59266;52.608;13.260;2022-11-27T09:43:20;23.75;;;9.60;;
71462;SDS011;59266;52.608;13.260;2022-11-27T09:45:55;18.08;;;8.13;;
71462;SDS011;59266;52.608;13.260;2022-11-27T09:48:34;19.75;;;7.82;;
71462;SDS011;59266;52.608;13.260;2022-11-27T09:51:07;19.52;;;8.50;;
71462;SDS011;59266;52.608;13.260;2022-11-27T09:53:42;20.08;;;7.95;;
71462;SDS011;59266;52.608;13.260;2022-11-27T09:56:15;20.60;;;8.68;;
71462;SDS011;59266;52.608;13.260;2022-11-27T09:58:44;22.08;;;8.88;;
71462;SDS011;59266;52.608;13.260;2022-11-27T10:01:17;22.00;;;8.52;;
71462;SDS011;59266;52.608;13.260;2022-11-27T10:03:59;22.98;;;8.57;;
71462;SDS011;59266;52.608;13.260;2022-11-27T10:06:31;19.40;;;7.78;;
71462;SDS011;59266;52.608;13.260;2022-11-27T10:09:28;19.65;;;7.68;;
71462;SDS011;59266;52.608;13.260;2022-11-27T10:18:38;16.55;;;7.75;;
71462;SDS011;59266;52.608;13.260;2022-11-27T10:20:49;18.92;;;8.45;;
71462;SDS011;59266;52.608;13.260;2022-11-27T10:23:41;14.80;;;7.70;;
71462;SDS011;59266;52.608;13.260;2022-11-27T10:26:19;17.00;;;7.85;;
71462;SDS011;59266;52.608;13.260;2022-11-27T10:28:58;21.95;;;8.00;;
71462;SDS011;59266;52.608;13.260;2022-11-27T10:31:31;17.58;;;7.43;;
71462;SDS011;59266;52.608;13.260;2022-11-27T10:34:03;19.55;;;7.47;;
71462;SDS011;59266;52.608;13.260;2022-11-27T10:36:40;17.13;;;7.78;;
71462;SDS011;59266;52.608;13.260;2022-11-27T10:39:14;17.20;;;7.32;;
71462;SDS011;59266;52.608;13.260;2022-11-27T10:42:04;19.20;;;7.63;;
71462;SDS011;59266;52.608;13.260;2022-11-27T10:44:47;17.70;;;7.80;;
71462;SDS011;59266;52.608;13.260;2022-11-27T10:47:18;19.58;;;7.40;;
71462;SDS011;59266;52.608;13.260;2022-11-27T10:49:49;18.02;;;8.15;;
71462;SDS011;59266;52.608;13.260;2022-11-27T10:52:16;15.80;;;7.28;;
71462;SDS011;59266;52.608;13.260;2022-11-27T10:54:56;16.98;;;7.45;;
71462;SDS011;59266;52.608;13.260;2022-11-27T10:57:33;16.63;;;7.57;;
71462;SDS011;59266;52.608;13.260;2022-11-27T11:02:45;18.23;;;7.55;;
71462;SDS011;59266;52.608;13.260;2022-11-27T11:05:18;17.35;;;6.82;;
71462;SDS011;59266;52.608;13.260;2022-11-27T11:08:15;16.58;;;6.80;;
71462;SDS011;59266;52.608;13.260;2022-11-27T11:10:48;18.77;;;7.32;;
71462;SDS011;59266;52.608;13.260;2022-11-27T11:13:23;14.25;;;7.05;;
71462;SDS011;59266;52.608;13.260;2022-11-27T11:15:54;16.38;;;7.00;;
71462;SDS011;59266;52.608;13.260;2022-11-27T11:18:25;17.30;;;6.60;;
71462;SDS011;59266;52.608;13.260;2022-11-27T11:20:58;16.65;;;6.47;;
71462;SDS011;59266;52.608;13.260;2022-11-27T11:23:33;17.48;;;7.03;;
71462;SDS011;59266;52.608;13.260;2022-11-27T11:26:03;18.20;;;6.65;;
71462;SDS011;59266;52.608;13.260;2022-11-27T11:28:34;13.25;;;6.38;;
71462;SDS011;59266;52.608;13.260;2022-11-27T11:31:10;16.15;;;6.80;;
71462;SDS011;59266;52.608;13.260;2022-11-27T11:33:46;15.15;;;6.13;;
71462;SDS011;59266;52.608;13.260;2022-11-27T11:36:16;15.60;;;5.70;;
71462;SDS011;59266;52.608;13.260;2022-11-27T11:38:45;12.73;;;5.80;;
71462;SDS011;59266;52.608;13.260;2022-11-27T11:41:13;12.18;;;5.45;;
71462;SDS011;59266;52.608;13.260;2022-11-27T11:43:56;13.10;;;6.05;;
71462;SDS011;59266;52.608;13.260;2022-11-27T11:46:26;12.93;;;6.07;;
71462;SDS011;59266;52.608;13.260;2022-11-27T11:49:04;12.15;;;5.63;;
71462;SDS011;59266;52.608;13.260;2022-11-27T11:54:37;16.23;;;5.65;;
71462;SDS011;59266;52.608;13.260;2022-11-27T12:00:15;20.05;;;6.25;;
71462;SDS011;59266;52.608;13.260;2022-11-27T12:02:52;13.80;;;6.00;;
71462;SDS011;59266;52.608;13.260;2022-11-27T12:05:40;15.23;;;6.25;;
71462;SDS011;59266;52.608;13.260;2022-11-27T12:08:28;15.75;;;6.40;;
71462;SDS011;59266;52.608;13.260;2022-11-27T12:11:13;15.63;;;5.97;;
71462;SDS011;59266;52.608;13.260;2022-11-27T12:13:54;14.02;;;7.18;;
71462;SDS011;59266;52.608;13.260;2022-11-27T12:16:49;12.60;;;5.07;;
71462;SDS011;59266;52.608;13.260;2022-11-27T12:19:40;13.45;;;5.35;;
71462;SDS011;59266;52.608;13.260;2022-11-27T12:22:45;15.50;;;6.05;;
71462;SDS011;59266;52.608;13.260;2022-11-27T12:25:27;17.27;;;6.18;;
71462;SDS011;59266;52.608;13.260;2022-11-27T12:28:03;15.02;;;6.00;;
71462;SDS011;59266;52.608;13.260;2022-11-27T12:30:44;13.30;;;5.78;;
71462;SDS011;59266;52.608;13.260;2022-11-27T12:33:39;17.02;;;6.35;;
71462;SDS011;59266;52.608;13.260;2022-11-27T12:41:55;14.50;;;6.22;;
71462;SDS011;59266;52.608;13.260;2022-11-27T12:44:34;14.77;;;5.50;;
71462;SDS011;59266;52.608;13.260;2022-11-27T12:47:07;14.30;;;6.38;;
71462;SDS011;59266;52.608;13.260;2022-11-27T12:49:46;15.75;;;6.18;;
71462;SDS011;59266;52.608;13.260;2022-11-27T12:52:19;15.90;;;6.30;;
71462;SDS011;59266;52.608;13.260;2022-11-27T12:54:50;14.80;;;6.00;;
71462;SDS011;59266;52.608;13.260;2022-11-27T12:57:40;17.67;;;6.82;;
71462;SDS011;59266;52.608;13.260;2022-11-27T13:00:15;15.65;;;6.97;;
71462;SDS011;59266;52.608;13.260;2022-11-27T13:05:28;17.08;;;8.20;;
71462;SDS011;59266;52.608;13.260;2022-11-27T13:08:23;16.67;;;7.18;;
71462;SDS011;59266;52.608;13.260;2022-11-27T13:11:07;17.73;;;7.30;;
71462;SDS011;59266;52.608;13.260;2022-11-27T13:16:36;18.88;;;6.75;;
71462;SDS011;59266;52.608;13.260;2022-11-27T13:19:18;14.70;;;6.50;;
71462;SDS011;59266;52.608;13.260;2022-11-27T13:21:58;17.85;;;7.60;;
71462;SDS011;59266;52.608;13.260;2022-11-27T13:24:27;16.27;;;6.47;;
71462;SDS011;59266;52.608;13.260;2022-11-27T13:26:57;18.42;;;6.82;;
71462;SDS011;59266;52.608;13.260;2022-11-27T13:29:30;15.77;;;6.90;;
71462;SDS011;59266;52.608;13.260;2022-11-27T13:32:03;13.98;;;6.35;;
71462;SDS011;59266;52.608;13.260;2022-11-27T13:34:32;17.50;;;6.35;;
71462;SDS011;59266;52.608;13.260;2022-11-27T13:37:06;19.02;;;6.68;;
71462;SDS011;59266;52.608;13.260;2022-11-27T13:39:35;15.85;;;6.88;;
71462;SDS011;59266;52.608;13.260;2022-11-27T13:44:38;15.43;;;6.53;;
71462;SDS011;59266;52.608;13.260;2022-11-27T13:47:17;16.90;;;6.40;;
71462;SDS011;59266;52.608;13.260;2022-11-27T13:49:56;16.20;;;7.00;;
71462;SDS011;59266;52.608;13.260;2022-11-27T13:52:25;19.15;;;6.68;;
71462;SDS011;59266;52.608;13.260;2022-11-27T13:54:53;15.90;;;6.30;;
71462;SDS011;59266;52.608;13.260;2022-11-27T13:57:24;16.23;;;7.18;;
71462;SDS011;59266;52.608;13.260;2022-11-27T14:02:47;17.40;;;7.00;;
71462;SDS011;59266;52.608;13.260;2022-11-27T14:05:16;17.67;;;6.57;;
71462;SDS011;59266;52.608;13.260;2022-11-27T14:07:47;20.00;;;7.53;;
71462;SDS011;59266;52.608;13.260;2022-11-27T14:10:17;15.82;;;6.65;;
71462;SDS011;59266;52.608;13.260;2022-11-27T14:12:51;16.83;;;7.22;;
71462;SDS011;59266;52.608;13.260;2022-11-27T14:15:21;18.25;;;7.15;;
71462;SDS011;59266;52.608;13.260;2022-11-27T14:17:51;17.58;;;7.22;;
71462;SDS011;59266;52.608;13.260;2022-11-27T14:20:29;18.02;;;6.97;;
71462;SDS011;59266;52.608;13.260;2022-11-27T14:22:58;15.55;;;5.90;;
71462;SDS011;59266;52.608;13.260;2022-11-27T14:25:37;17.77;;;7.40;;
71462;SDS011;59266;52.608;13.260;2022-11-27T14:28:14;19.70;;;7.32;;
71462;SDS011;59266;52.608;13.260;2022-11-27T14:30:52;20.55;;;7.68;;
71462;SDS011;59266;52.608;13.260;2022-11-27T14:33:24;16.20;;;7.22;;
71462;SDS011;59266;52.608;13.260;2022-11-27T14:35:57;16.85;;;8.18;;
71462;SDS011;59266;52.608;13.260;2022-11-27T14:38:33;23.10;;;8.32;;
71462;SDS011;59266;52.608;13.260;2022-11-27T14:41:07;21.40;;;7.97;;
71462;SDS011;59266;52.608;13.260;2022-11-27T14:43:36;21.70;;;8.20;;
71462;SDS011;59266;52.608;13.260;2022-11-27T14:46:03;20.38;;;7.63;;
71462;SDS011;59266;52.608;13.260;2022-11-27T14:48:38;16.38;;;8.80;;
71462;SDS011;59266;52.608;13.260;2022-11-27T14:51:18;23.23;;;8.88;;
71462;SDS011;59266;52.608;13.260;2022-11-27T14:53:46;23.05;;;9.27;;
71462;SDS011;59266;52.608;13.260;2022-11-27T14:56:14;23.73;;;9.90;;
71462;SDS011;59266;52.608;13.260;2022-11-27T14:58:44;24.20;;;9.77;;
71462;SDS011;59266;52.608;13.260;2022-11-27T15:01:22;21.88;;;9.30;;
71462;SDS011;59266;52.608;13.260;2022-11-27T15:03:54;21.20;;;9.20;;
71462;SDS011;59266;52.608;13.260;2022-11-27T15:06:33;19.30;;;8.40;;
71462;SDS011;59266;52.608;13.260;2022-11-27T15:09:01;21.05;;;8.82;;
71462;SDS011;59266;52.608;13.260;2022-11-27T15:11:51;22.45;;;8.50;;
71462;SDS011;59266;52.608;13.260;2022-11-27T15:14:22;18.73;;;8.38;;
71462;SDS011;59266;52.608;13.260;2022-11-27T15:16:50;18.42;;;8.10;;
71462;SDS011;59266;52.608;13.260;2022-11-27T15:19:24;19.20;;;7.75;;
71462;SDS011;59266;52.608;13.260;2022-11-27T15:21:54;19.92;;;7.72;;
71462;SDS011;59266;52.608;13.260;2022-11-27T15:24:27;19.38;;;7.93;;